createdAt,value
2019-02-26T00:00:26.174Z,17.40
2019-02-26T00:00:58.674Z,13.90
2019-02-26T00:01:30.847Z,15.98
2019-02-26T00:02:02.716Z,13.80
2019-02-26T00:02:34.075Z,13.93
2019-02-26T00:03:05.299Z,15.35
2019-02-26T00:03:36.515Z,12.53
2019-02-26T00:04:07.724Z,11.73
2019-02-26T00:04:39.055Z,11.38
2019-02-26T00:05:10.275Z,11.12
2019-02-26T00:05:41.486Z,12.70
2019-02-26T00:06:12.738Z,11.25
2019-02-26T00:06:47.128Z,13.85
2019-02-26T00:07:18.846Z,13.10
2019-02-26T00:07:51.558Z,13.28
2019-02-26T00:08:24.608Z,12.80
2019-02-26T00:08:58.224Z,12.75
2019-02-26T00:09:30.490Z,9.70
2019-02-26T00:10:04.421Z,12.43
2019-02-26T00:10:37.132Z,11.45
2019-02-26T00:11:08.507Z,9.35
2019-02-26T00:11:40.473Z,11.75
2019-02-26T00:12:11.667Z,7.45
2019-02-26T00:12:42.969Z,10.85
2019-02-26T00:13:14.173Z,10.90
2019-02-26T00:13:45.388Z,11.78
2019-02-26T00:14:17.849Z,11.03
2019-02-26T00:14:50.179Z,11.60
2019-02-26T00:15:22.660Z,10.63
2019-02-26T00:15:53.887Z,10.55
2019-02-26T00:16:25.146Z,10.48
2019-02-26T00:16:56.349Z,10.98
2019-02-26T00:17:27.558Z,10.65
2019-02-26T00:17:58.827Z,11.88
2019-02-26T00:18:30.033Z,11.18
2019-02-26T00:19:04.622Z,10.45
2019-02-26T00:19:34.238Z,12.25
2019-02-26T00:20:05.796Z,12.20
2019-02-26T00:20:39.642Z,11.55
2019-02-26T00:21:11.336Z,10.55
2019-02-26T00:21:43.119Z,11.63
2019-02-26T00:22:15.895Z,11.60
2019-02-26T00:22:48.408Z,10.90
2019-02-26T00:23:21.486Z,11.33
2019-02-26T00:23:53.145Z,11.33
2019-02-26T00:24:24.442Z,9.70
2019-02-26T00:24:55.641Z,11.63
2019-02-26T00:25:26.869Z,12.70
2019-02-26T00:25:58.076Z,11.18
2019-02-26T00:26:29.287Z,11.68
2019-02-26T00:27:01.465Z,11.80
2019-02-26T00:27:35.147Z,10.32
2019-02-26T00:28:06.477Z,11.55
2019-02-26T00:28:39.091Z,12.82
2019-02-26T00:29:10.623Z,12.30
2019-02-26T00:29:41.812Z,10.93
2019-02-26T00:30:14.325Z,10.48
2019-02-26T00:30:45.979Z,11.03
2019-02-26T00:31:19.135Z,13.38
2019-02-26T00:31:50.777Z,11.38
2019-02-26T00:32:23.193Z,11.65
2019-02-26T00:32:55.436Z,11.70
2019-02-26T00:33:28.953Z,10.60
2019-02-26T00:34:00.295Z,11.20
2019-02-26T00:34:32.345Z,11.33
2019-02-26T00:35:04.422Z,12.55
2019-02-26T00:35:35.646Z,9.88
2019-02-26T00:36:08.924Z,12.35
2019-02-26T00:36:39.832Z,12.37
2019-02-26T00:37:11.073Z,12.23
2019-02-26T00:37:44.050Z,10.72
2019-02-26T00:38:16.038Z,12.18
2019-02-26T00:38:48.155Z,11.18
2019-02-26T00:39:20.612Z,11.95
2019-02-26T00:39:54.176Z,9.10
2019-02-26T00:40:25.354Z,10.90
2019-02-26T00:40:57.814Z,12.65
2019-02-26T00:41:31.265Z,11.95
2019-02-26T00:42:03.219Z,10.65
2019-02-26T00:42:36.038Z,10.40
2019-02-26T00:43:07.477Z,11.80
2019-02-26T00:43:38.683Z,11.95
2019-02-26T00:44:09.886Z,12.98
2019-02-26T00:44:41.147Z,10.25
2019-02-26T00:45:12.329Z,12.88
2019-02-26T00:45:43.587Z,11.70
2019-02-26T00:46:14.793Z,11.68
2019-02-26T00:46:45.997Z,11.95
2019-02-26T00:47:17.192Z,12.63
2019-02-26T00:47:48.411Z,12.58
2019-02-26T00:48:19.612Z,12.05
2019-02-26T00:48:50.835Z,11.33
2019-02-26T00:49:23.704Z,12.90
2019-02-26T00:49:55.053Z,11.97
2019-02-26T00:50:27.991Z,13.00
2019-02-26T00:51:01.048Z,12.37
2019-02-26T00:51:32.162Z,11.78
2019-02-26T00:52:04.016Z,11.90
2019-02-26T00:52:37.452Z,12.82
2019-02-26T00:53:09.320Z,12.60
2019-02-26T00:53:40.538Z,11.65
2019-02-26T00:54:11.741Z,13.18
2019-02-26T00:54:43.025Z,11.88
2019-02-26T00:55:14.249Z,14.43
2019-02-26T00:55:45.456Z,11.38
2019-02-26T00:56:16.666Z,11.57
2019-02-26T00:56:47.863Z,12.13
2019-02-26T00:57:19.083Z,9.88
2019-02-26T00:57:50.299Z,12.90
2019-02-26T00:58:21.547Z,13.22
2019-02-26T00:58:52.773Z,12.23
2019-02-26T00:59:23.989Z,10.90
2019-02-26T00:59:55.206Z,10.45
2019-02-26T01:00:28.424Z,10.78
2019-02-26T01:00:59.415Z,12.68
2019-02-26T01:01:30.624Z,10.30
2019-02-26T01:02:01.843Z,10.70
2019-02-26T01:02:33.054Z,10.82
2019-02-26T01:03:05.965Z,12.18
2019-02-26T01:03:37.251Z,11.45
2019-02-26T01:04:08.475Z,9.35
2019-02-26T01:04:41.455Z,12.33
2019-02-26T01:05:13.146Z,11.83
2019-02-26T01:05:45.618Z,11.70
2019-02-26T01:06:16.822Z,11.03
2019-02-26T01:06:48.035Z,12.00
2019-02-26T01:07:21.219Z,12.23
2019-02-26T01:07:54.236Z,10.15
2019-02-26T01:08:25.127Z,11.55
2019-02-26T01:08:56.374Z,10.90
2019-02-26T01:09:29.364Z,10.32
2019-02-26T01:10:00.515Z,10.30
2019-02-26T01:10:31.778Z,12.23
2019-02-26T01:11:03.933Z,11.55
2019-02-26T01:11:35.906Z,11.53
2019-02-26T01:12:09.008Z,11.88
2019-02-26T01:12:40.971Z,10.53
2019-02-26T01:13:12.964Z,12.50
2019-02-26T01:13:44.208Z,10.98
2019-02-26T01:14:15.869Z,10.75
2019-02-26T01:14:50.418Z,9.88
2019-02-26T01:15:21.622Z,9.95
2019-02-26T01:15:52.838Z,11.33
2019-02-26T01:16:24.042Z,10.78
2019-02-26T01:16:55.264Z,10.30
2019-02-26T01:17:26.477Z,9.55
2019-02-26T01:17:58.926Z,11.70
2019-02-26T01:18:30.622Z,9.75
2019-02-26T01:19:04.634Z,9.45
2019-02-26T01:19:36.940Z,10.95
2019-02-26T01:20:08.816Z,9.95
2019-02-26T01:20:40.055Z,11.90
2019-02-26T01:21:11.277Z,11.65
2019-02-26T01:21:42.477Z,11.18
2019-02-26T01:22:13.731Z,11.65
2019-02-26T01:22:45.565Z,10.53
2019-02-26T01:23:21.061Z,13.50
2019-02-26T01:23:49.829Z,10.78
2019-02-26T01:24:21.843Z,11.53
2019-02-26T01:24:54.278Z,11.48
2019-02-26T01:25:26.888Z,10.63
2019-02-26T01:25:58.092Z,11.05
2019-02-26T01:26:29.296Z,12.05
2019-02-26T01:27:00.491Z,11.18
2019-02-26T01:27:31.753Z,10.18
2019-02-26T01:28:02.981Z,10.05
2019-02-26T01:28:34.182Z,10.20
2019-02-26T01:29:05.542Z,11.78
2019-02-26T01:29:36.739Z,10.25
2019-02-26T01:30:07.939Z,10.32
2019-02-26T01:30:39.179Z,11.65
2019-02-26T01:31:10.396Z,10.63
2019-02-26T01:31:41.689Z,11.33
2019-02-26T01:32:13.802Z,10.90
2019-02-26T01:32:45.855Z,11.30
2019-02-26T01:33:17.069Z,10.50
2019-02-26T01:33:49.079Z,11.55
2019-02-26T01:34:21.250Z,12.10
2019-02-26T01:34:52.454Z,11.48
2019-02-26T01:35:23.680Z,10.08
2019-02-26T01:35:55.491Z,11.38
2019-02-26T01:36:27.871Z,10.68
2019-02-26T01:37:00.829Z,10.70
2019-02-26T01:37:34.289Z,10.82
2019-02-26T01:38:05.137Z,10.08
2019-02-26T01:38:39.508Z,12.00
2019-02-26T01:39:11.499Z,10.28
2019-02-26T01:39:43.017Z,10.00
2019-02-26T01:40:18.419Z,12.13
2019-02-26T01:40:51.093Z,11.38
2019-02-26T01:41:23.249Z,12.10
2019-02-26T01:41:56.256Z,13.58
2019-02-26T01:42:27.674Z,10.35
2019-02-26T01:43:02.589Z,11.28
2019-02-26T01:43:32.955Z,12.45
2019-02-26T01:44:04.181Z,10.10
2019-02-26T01:44:37.369Z,10.72
2019-02-26T01:45:08.335Z,11.28
2019-02-26T01:45:39.583Z,10.50
2019-02-26T01:46:11.698Z,11.65
2019-02-26T01:46:43.748Z,10.65
2019-02-26T01:47:17.062Z,11.97
2019-02-26T01:47:50.016Z,11.00
2019-02-26T01:48:20.848Z,10.18
2019-02-26T01:48:52.963Z,12.40
2019-02-26T01:49:26.609Z,11.45
2019-02-26T01:49:59.379Z,10.63
2019-02-26T01:50:33.239Z,10.35
2019-02-26T01:51:03.776Z,9.88
2019-02-26T01:51:34.972Z,12.68
2019-02-26T01:52:07.985Z,12.25
2019-02-26T01:52:39.104Z,11.35
2019-02-26T01:53:12.003Z,10.28
2019-02-26T01:53:46.419Z,10.72
2019-02-26T01:54:16.784Z,10.80
2019-02-26T01:54:48.119Z,10.23
2019-02-26T01:55:20.762Z,11.05
2019-02-26T01:55:52.287Z,14.05
2019-02-26T01:56:23.485Z,11.05
2019-02-26T01:56:54.701Z,12.63
2019-02-26T01:57:27.698Z,10.48
2019-02-26T01:57:59.318Z,13.30
2019-02-26T01:58:33.446Z,10.03
2019-02-26T01:59:03.609Z,12.33
2019-02-26T01:59:36.119Z,11.10
2019-02-26T02:00:07.320Z,8.95
2019-02-26T02:00:38.676Z,10.13
2019-02-26T02:01:14.036Z,10.32
2019-02-26T02:01:46.469Z,8.23
2019-02-26T02:02:20.087Z,11.12
2019-02-26T02:02:50.237Z,9.58
2019-02-26T02:03:23.020Z,10.18
2019-02-26T02:03:56.212Z,10.88
2019-02-26T02:04:27.380Z,10.18
2019-02-26T02:04:59.771Z,8.15
2019-02-26T02:05:31.571Z,10.72
2019-02-26T02:06:02.804Z,8.95
2019-02-26T02:06:34.926Z,8.63
2019-02-26T02:07:06.996Z,8.88
2019-02-26T02:07:38.194Z,9.85
2019-02-26T02:08:13.063Z,11.33
2019-02-26T02:08:45.880Z,9.23
2019-02-26T02:09:18.690Z,8.93
2019-02-26T02:09:51.352Z,9.18
2019-02-26T02:10:22.859Z,10.28
2019-02-26T02:10:56.533Z,9.08
2019-02-26T02:11:30.576Z,9.50
2019-02-26T02:12:02.039Z,9.08
2019-02-26T02:12:34.397Z,10.08
2019-02-26T02:13:07.154Z,8.80
2019-02-26T02:13:41.262Z,10.88
2019-02-26T02:14:12.752Z,9.68
2019-02-26T02:14:44.729Z,9.13
2019-02-26T02:15:18.830Z,9.08
2019-02-26T02:15:48.904Z,8.85
2019-02-26T02:16:19.935Z,9.45
2019-02-26T02:16:51.139Z,10.23
2019-02-26T02:17:22.348Z,7.97
2019-02-26T02:17:56.643Z,9.80
2019-02-26T02:18:28.121Z,9.43
2019-02-26T02:19:00.043Z,8.93
2019-02-26T02:19:32.630Z,9.95
2019-02-26T02:20:07.708Z,8.05
2019-02-26T02:20:36.830Z,7.33
2019-02-26T02:21:08.038Z,9.05
2019-02-26T02:21:39.249Z,12.37
2019-02-26T02:22:12.200Z,14.23
2019-02-26T02:22:44.413Z,10.53
2019-02-26T02:23:15.891Z,8.50
2019-02-26T02:23:49.211Z,9.10
2019-02-26T02:24:22.272Z,9.85
2019-02-26T02:24:53.975Z,8.63
2019-02-26T02:25:29.041Z,8.38
2019-02-26T02:26:02.143Z,9.93
2019-02-26T02:26:31.860Z,11.15
2019-02-26T02:27:03.068Z,8.13
2019-02-26T02:27:34.310Z,9.75
2019-02-26T02:28:05.500Z,10.48
2019-02-26T02:28:36.705Z,9.75
2019-02-26T02:29:07.921Z,9.73
2019-02-26T02:29:41.837Z,9.68
2019-02-26T02:30:18.517Z,9.55
2019-02-26T02:30:45.029Z,9.20
2019-02-26T02:31:16.302Z,8.08
2019-02-26T02:31:47.504Z,9.43
2019-02-26T02:32:20.972Z,9.48
2019-02-26T02:32:56.364Z,9.80
2019-02-26T02:33:26.762Z,9.90
2019-02-26T02:33:57.580Z,10.28
2019-02-26T02:34:29.591Z,10.93
2019-02-26T02:35:04.329Z,12.75
2019-02-26T02:35:34.714Z,10.40
2019-02-26T02:36:05.944Z,9.33
2019-02-26T02:36:37.155Z,12.15
2019-02-26T02:37:08.400Z,10.10
2019-02-26T02:37:39.603Z,10.23
2019-02-26T02:38:10.883Z,10.63
2019-02-26T02:38:42.117Z,9.45
2019-02-26T02:39:15.740Z,10.70
2019-02-26T02:39:46.292Z,11.28
2019-02-26T02:40:17.494Z,9.88
2019-02-26T02:40:51.188Z,10.98
2019-02-26T02:41:21.660Z,10.13
2019-02-26T02:41:54.914Z,10.58
2019-02-26T02:42:25.856Z,9.93
2019-02-26T02:42:57.080Z,11.65
2019-02-26T02:43:28.293Z,11.35
2019-02-26T02:43:59.576Z,10.65
2019-02-26T02:44:30.754Z,10.00
2019-02-26T02:45:01.970Z,10.78
2019-02-26T02:45:33.179Z,10.82
2019-02-26T02:46:04.395Z,9.55
2019-02-26T02:46:36.689Z,10.23
2019-02-26T02:47:09.337Z,9.30
2019-02-26T02:47:41.503Z,10.03
2019-02-26T02:48:14.194Z,10.58
2019-02-26T02:48:45.566Z,11.50
2019-02-26T02:49:17.966Z,12.65
2019-02-26T02:49:49.249Z,11.75
2019-02-26T02:50:20.465Z,9.73
2019-02-26T02:50:51.690Z,11.05
2019-02-26T02:51:22.915Z,10.88
2019-02-26T02:51:54.165Z,10.95
2019-02-26T02:52:27.065Z,9.40
2019-02-26T02:52:59.654Z,10.55
2019-02-26T02:53:32.341Z,11.10
2019-02-26T02:54:03.667Z,11.65
2019-02-26T02:54:34.892Z,10.40
2019-02-26T02:55:06.875Z,10.23
2019-02-26T02:55:44.261Z,9.03
2019-02-26T02:56:15.343Z,9.83
2019-02-26T02:56:47.194Z,9.68
2019-02-26T02:57:18.586Z,9.70
2019-02-26T02:57:52.658Z,9.80
2019-02-26T02:58:23.927Z,11.25
2019-02-26T02:58:55.657Z,9.93
2019-02-26T02:59:28.319Z,9.48
2019-02-26T03:00:02.629Z,10.50
2019-02-26T03:00:34.455Z,9.38
2019-02-26T03:01:05.788Z,11.45
2019-02-26T03:01:37.003Z,10.10
2019-02-26T03:02:09.408Z,9.95
2019-02-26T03:02:43.183Z,11.95
2019-02-26T03:03:14.172Z,9.28
2019-02-26T03:03:47.633Z,9.18
2019-02-26T03:04:19.781Z,9.70
2019-02-26T03:04:51.232Z,9.20
2019-02-26T03:05:22.442Z,11.12
2019-02-26T03:05:53.656Z,9.65
2019-02-26T03:06:27.310Z,11.20
2019-02-26T03:06:58.780Z,10.68
2019-02-26T03:07:30.786Z,9.55
2019-02-26T03:08:01.983Z,9.48
2019-02-26T03:08:33.181Z,9.23
2019-02-26T03:09:04.404Z,9.18
2019-02-26T03:09:37.723Z,10.75
2019-02-26T03:10:09.642Z,9.90
2019-02-26T03:10:43.095Z,9.68
2019-02-26T03:11:14.427Z,9.25
2019-02-26T03:11:46.467Z,10.15
2019-02-26T03:12:18.595Z,11.57
2019-02-26T03:12:53.790Z,11.45
2019-02-26T03:13:24.913Z,13.08
2019-02-26T03:13:55.762Z,9.60
2019-02-26T03:14:26.959Z,10.70
2019-02-26T03:14:59.861Z,12.55
2019-02-26T03:15:33.623Z,11.12
2019-02-26T03:16:04.075Z,11.03
2019-02-26T03:16:35.501Z,11.20
2019-02-26T03:17:09.081Z,10.95
2019-02-26T03:17:39.675Z,10.50
2019-02-26T03:18:12.523Z,11.05
2019-02-26T03:18:43.840Z,11.25
2019-02-26T03:19:16.931Z,10.78
2019-02-26T03:19:47.980Z,9.58
2019-02-26T03:20:19.180Z,9.85
2019-02-26T03:20:51.433Z,12.58
2019-02-26T03:21:24.764Z,11.60
2019-02-26T03:21:56.262Z,10.78
2019-02-26T03:22:27.536Z,9.98
2019-02-26T03:22:58.787Z,10.38
2019-02-26T03:23:31.308Z,11.88
2019-02-26T03:24:05.630Z,11.10
2019-02-26T03:24:35.996Z,11.45
2019-02-26T03:25:07.140Z,12.33
2019-02-26T03:25:38.356Z,11.18
2019-02-26T03:26:12.562Z,11.63
2019-02-26T03:26:42.503Z,13.00
2019-02-26T03:27:13.714Z,10.48
2019-02-26T03:27:44.953Z,12.75
2019-02-26T03:28:16.162Z,12.88
2019-02-26T03:28:48.150Z,9.90
2019-02-26T03:29:20.306Z,10.72
2019-02-26T03:29:52.541Z,12.30
2019-02-26T03:30:31.973Z,12.75
2019-02-26T03:30:57.464Z,11.55
2019-02-26T03:31:31.040Z,10.00
2019-02-26T03:32:01.615Z,10.03
2019-02-26T03:32:36.075Z,12.53
2019-02-26T03:33:05.751Z,12.82
2019-02-26T03:33:36.940Z,10.82
2019-02-26T03:34:10.597Z,11.15
2019-02-26T03:34:41.149Z,11.18
2019-02-26T03:35:13.224Z,12.37
2019-02-26T03:35:45.336Z,10.30
2019-02-26T03:36:17.183Z,11.33
2019-02-26T03:36:49.470Z,10.80
2019-02-26T03:37:20.688Z,11.60
2019-02-26T03:37:54.875Z,11.85
2019-02-26T03:38:26.965Z,10.80
2019-02-26T03:39:00.708Z,12.13
2019-02-26T03:39:30.710Z,10.40
2019-02-26T03:40:03.654Z,10.68
2019-02-26T03:40:36.149Z,10.35
2019-02-26T03:41:07.564Z,11.25
2019-02-26T03:41:38.805Z,11.20
2019-02-26T03:42:10.579Z,11.15
2019-02-26T03:42:43.465Z,14.10
2019-02-26T03:43:16.289Z,10.95
2019-02-26T03:43:47.652Z,13.10
2019-02-26T03:44:18.875Z,12.80
2019-02-26T03:44:50.127Z,11.38
2019-02-26T03:45:24.683Z,12.88
2019-02-26T03:45:54.312Z,11.08
2019-02-26T03:46:25.527Z,11.85
2019-02-26T03:46:56.752Z,12.15
2019-02-26T03:47:27.954Z,13.22
2019-02-26T03:47:59.215Z,12.10
2019-02-26T03:48:30.424Z,13.25
2019-02-26T03:49:02.727Z,11.80
2019-02-26T03:49:34.590Z,11.00
2019-02-26T03:50:08.528Z,12.20
2019-02-26T03:50:38.736Z,12.68
2019-02-26T03:51:10.006Z,12.23
2019-02-26T03:51:41.210Z,11.63
2019-02-26T03:52:15.316Z,13.43
2019-02-26T03:52:45.372Z,13.43
2019-02-26T03:53:16.752Z,11.55
2019-02-26T03:53:47.954Z,14.30
2019-02-26T03:54:19.161Z,12.45
2019-02-26T03:54:50.762Z,14.98
2019-02-26T03:55:22.064Z,12.40
2019-02-26T03:55:53.263Z,13.03
2019-02-26T03:56:24.474Z,12.95
2019-02-26T03:56:55.679Z,13.25
2019-02-26T03:57:26.882Z,11.22
2019-02-26T03:58:01.426Z,13.75
2019-02-26T03:58:31.071Z,12.37
2019-02-26T03:59:05.756Z,12.33
2019-02-26T03:59:35.218Z,13.00
2019-02-26T04:00:08.779Z,12.07
2019-02-26T04:00:41.714Z,12.65
2019-02-26T04:01:13.653Z,10.95
2019-02-26T04:01:45.277Z,14.53
2019-02-26T04:02:18.110Z,13.48
2019-02-26T04:02:51.813Z,12.05
2019-02-26T04:03:22.356Z,11.90
2019-02-26T04:03:54.655Z,12.10
2019-02-26T04:04:30.448Z,12.30
2019-02-26T04:05:02.242Z,12.33
2019-02-26T04:05:32.392Z,10.88
2019-02-26T04:06:06.685Z,12.93
2019-02-26T04:06:38.431Z,12.70
2019-02-26T04:07:10.661Z,13.05
2019-02-26T04:07:41.936Z,13.95
2019-02-26T04:08:13.269Z,12.70
2019-02-26T04:08:46.029Z,11.08
2019-02-26T04:09:19.607Z,14.10
2019-02-26T04:09:53.122Z,11.93
2019-02-26T04:10:23.364Z,13.28
2019-02-26T04:10:55.958Z,12.00
2019-02-26T04:11:27.850Z,13.00
2019-02-26T04:11:59.090Z,14.03
2019-02-26T04:12:30.316Z,13.25
2019-02-26T04:13:01.557Z,11.70
2019-02-26T04:13:32.807Z,13.98
2019-02-26T04:14:04.032Z,13.00
2019-02-26T04:14:35.275Z,16.97
2019-02-26T04:15:06.459Z,12.63
2019-02-26T04:15:38.779Z,13.98
2019-02-26T04:16:09.962Z,12.50
2019-02-26T04:16:43.613Z,11.70
2019-02-26T04:17:14.125Z,11.88
2019-02-26T04:17:45.340Z,12.35
2019-02-26T04:18:18.467Z,12.03
2019-02-26T04:18:51.959Z,13.65
2019-02-26T04:19:26.138Z,11.33
2019-02-26T04:19:55.587Z,12.15
2019-02-26T04:20:27.866Z,12.95
2019-02-26T04:21:03.208Z,11.75
2019-02-26T04:21:32.175Z,12.55
2019-02-26T04:22:03.380Z,13.98
2019-02-26T04:22:34.630Z,13.58
2019-02-26T04:23:05.824Z,11.60
2019-02-26T04:23:38.943Z,15.50
2019-02-26T04:24:11.425Z,13.62
2019-02-26T04:24:42.705Z,12.45
2019-02-26T04:25:13.915Z,11.55
2019-02-26T04:25:45.144Z,12.05
2019-02-26T04:26:20.872Z,12.20
2019-02-26T04:26:49.268Z,12.40
2019-02-26T04:27:20.498Z,13.83
2019-02-26T04:27:51.710Z,14.23
2019-02-26T04:28:27.365Z,13.38
2019-02-26T04:28:57.309Z,12.65
2019-02-26T04:29:28.759Z,14.23
2019-02-26T04:29:59.989Z,13.00
2019-02-26T04:30:36.608Z,11.95
2019-02-26T04:31:04.177Z,13.22
2019-02-26T04:31:35.387Z,13.48
2019-02-26T04:32:06.629Z,13.98
2019-02-26T04:32:40.750Z,12.95
2019-02-26T04:33:11.650Z,13.75
2019-02-26T04:33:43.713Z,12.93
2019-02-26T04:34:14.967Z,13.35
2019-02-26T04:34:46.206Z,14.18
2019-02-26T04:35:17.411Z,12.40
2019-02-26T04:35:50.128Z,13.80
2019-02-26T04:36:22.373Z,16.20
2019-02-26T04:36:53.739Z,12.50
2019-02-26T04:37:27.263Z,12.95
2019-02-26T04:37:59.061Z,14.30
2019-02-26T04:38:31.143Z,13.10
2019-02-26T04:39:02.577Z,14.00
2019-02-26T04:39:34.436Z,11.93
2019-02-26T04:40:10.180Z,14.73
2019-02-26T04:40:40.953Z,13.28
2019-02-26T04:41:15.719Z,11.78
2019-02-26T04:41:45.223Z,12.93
2019-02-26T04:42:18.188Z,12.78
2019-02-26T04:42:49.452Z,11.53
2019-02-26T04:43:20.665Z,13.93
2019-02-26T04:43:54.562Z,11.83
2019-02-26T04:44:26.868Z,12.60
2019-02-26T04:45:00.519Z,11.78
2019-02-26T04:45:30.710Z,14.03
2019-02-26T04:46:04.947Z,13.68
2019-02-26T04:46:36.903Z,12.10
2019-02-26T04:47:07.840Z,11.50
2019-02-26T04:47:40.748Z,12.75
2019-02-26T04:48:14.709Z,10.88
2019-02-26T04:48:44.917Z,10.85
2019-02-26T04:49:16.158Z,12.58
2019-02-26T04:49:47.470Z,10.72
2019-02-26T04:50:22.987Z,9.33
2019-02-26T04:50:51.641Z,12.90
2019-02-26T04:51:22.863Z,11.88
2019-02-26T04:51:54.076Z,11.60
2019-02-26T04:52:25.294Z,12.68
2019-02-26T04:52:59.741Z,9.38
2019-02-26T04:53:31.312Z,10.68
2019-02-26T04:54:02.402Z,13.10
2019-02-26T04:54:35.927Z,12.37
2019-02-26T04:55:06.539Z,12.65
2019-02-26T04:55:41.384Z,13.80
2019-02-26T04:56:12.796Z,15.35
2019-02-26T04:56:45.108Z,12.13
2019-02-26T04:57:16.707Z,15.25
2019-02-26T04:57:50.607Z,13.60
2019-02-26T04:58:22.684Z,12.45
2019-02-26T04:58:54.000Z,13.25
2019-02-26T04:59:25.335Z,14.03
2019-02-26T04:59:59.163Z,12.60
2019-02-26T05:00:32.186Z,12.75
2019-02-26T05:01:04.231Z,12.25
2019-02-26T05:01:35.394Z,12.60
2019-02-26T05:02:06.593Z,13.30
2019-02-26T05:02:37.851Z,13.35
2019-02-26T05:03:11.819Z,12.73
2019-02-26T05:03:41.992Z,12.65
2019-02-26T05:04:13.206Z,12.53
2019-02-26T05:04:44.437Z,12.40
2019-02-26T05:05:15.663Z,12.25
2019-02-26T05:05:51.404Z,14.40
2019-02-26T05:06:19.802Z,12.28
2019-02-26T05:06:51.038Z,12.00
2019-02-26T05:07:22.245Z,14.95
2019-02-26T05:07:53.500Z,12.63
2019-02-26T05:08:24.740Z,15.50
2019-02-26T05:08:59.330Z,12.75
2019-02-26T05:09:30.598Z,13.65
2019-02-26T05:10:02.315Z,13.83
2019-02-26T05:10:35.760Z,14.93
2019-02-26T05:11:06.994Z,11.95
2019-02-26T05:11:40.655Z,13.88
2019-02-26T05:12:11.141Z,12.13
2019-02-26T05:12:42.337Z,13.58
2019-02-26T05:13:13.576Z,13.80
2019-02-26T05:13:44.804Z,13.80
2019-02-26T05:14:21.006Z,14.30
2019-02-26T05:14:48.958Z,14.95
2019-02-26T05:15:22.663Z,14.85
2019-02-26T05:15:53.185Z,13.50
2019-02-26T05:16:28.538Z,11.83
2019-02-26T05:16:57.323Z,12.33
2019-02-26T05:17:30.787Z,14.63
2019-02-26T05:18:01.453Z,13.83
2019-02-26T05:18:34.517Z,13.78
2019-02-26T05:19:05.644Z,12.33
2019-02-26T05:19:39.249Z,11.85
2019-02-26T05:20:12.857Z,13.60
2019-02-26T05:20:47.220Z,14.18
2019-02-26T05:21:15.699Z,16.00
2019-02-26T05:21:46.887Z,13.85
2019-02-26T05:22:19.828Z,14.78
2019-02-26T05:22:52.058Z,12.95
2019-02-26T05:23:25.905Z,13.60
2019-02-26T05:23:57.671Z,12.98
2019-02-26T05:24:29.840Z,13.32
2019-02-26T05:25:01.057Z,11.93
2019-02-26T05:25:34.394Z,14.73
2019-02-26T05:26:08.097Z,14.78
2019-02-26T05:26:38.230Z,16.48
2019-02-26T05:27:11.831Z,13.10
2019-02-26T05:27:45.226Z,12.50
2019-02-26T05:28:17.488Z,14.20
2019-02-26T05:28:49.721Z,13.05
2019-02-26T05:29:21.255Z,11.45
2019-02-26T05:29:54.754Z,16.15
2019-02-26T05:30:25.383Z,15.00
2019-02-26T05:30:56.618Z,15.63
2019-02-26T05:31:29.618Z,16.60
2019-02-26T05:32:03.597Z,12.73
2019-02-26T05:32:35.517Z,15.90
2019-02-26T05:33:06.702Z,15.23
2019-02-26T05:33:37.967Z,13.83
2019-02-26T05:34:09.187Z,12.90
2019-02-26T05:34:42.785Z,15.40
2019-02-26T05:35:14.494Z,16.85
2019-02-26T05:35:48.863Z,13.88
2019-02-26T05:36:19.267Z,14.47
2019-02-26T05:36:50.482Z,11.90
2019-02-26T05:37:21.723Z,16.02
2019-02-26T05:37:55.497Z,13.55
2019-02-26T05:38:26.571Z,14.90
2019-02-26T05:39:00.347Z,14.63
2019-02-26T05:39:31.898Z,13.83
2019-02-26T05:40:03.108Z,13.80
2019-02-26T05:40:37.484Z,16.90
2019-02-26T05:41:07.289Z,14.20
2019-02-26T05:41:40.362Z,14.18
2019-02-26T05:42:11.417Z,17.32
2019-02-26T05:42:42.679Z,14.58
2019-02-26T05:43:13.912Z,19.12
2019-02-26T05:43:49.450Z,13.98
2019-02-26T05:44:18.088Z,14.00
2019-02-26T05:44:53.763Z,15.60
2019-02-26T05:45:23.829Z,15.98
2019-02-26T05:45:58.106Z,14.78
2019-02-26T05:46:29.510Z,13.05
2019-02-26T05:47:01.714Z,14.28
2019-02-26T05:47:33.030Z,12.35
2019-02-26T05:48:04.271Z,12.00
2019-02-26T05:48:37.233Z,13.40
2019-02-26T05:49:12.526Z,14.65
2019-02-26T05:49:43.399Z,13.28
2019-02-26T05:50:16.750Z,11.75
2019-02-26T05:50:47.367Z,14.30
2019-02-26T05:51:18.636Z,13.80
2019-02-26T05:51:49.847Z,12.98
2019-02-26T05:52:21.925Z,15.30
2019-02-26T05:52:58.020Z,14.05
2019-02-26T05:53:27.035Z,13.58
2019-02-26T05:54:01.768Z,17.77
2019-02-26T05:54:31.202Z,16.82
2019-02-26T05:55:02.399Z,14.33
2019-02-26T05:55:33.616Z,18.55
2019-02-26T05:56:04.820Z,12.53
2019-02-26T05:56:37.222Z,17.40
2019-02-26T05:57:15.310Z,13.65
2019-02-26T05:57:42.088Z,13.13
2019-02-26T05:58:15.815Z,13.65
2019-02-26T05:58:46.989Z,16.07
2019-02-26T05:59:21.308Z,14.87
2019-02-26T05:59:51.317Z,13.30
2019-02-26T06:00:25.533Z,12.90
2019-02-26T06:00:55.495Z,15.63
2019-02-26T06:01:27.818Z,12.03
2019-02-26T06:01:59.130Z,13.85
2019-02-26T06:02:30.343Z,13.13
2019-02-26T06:03:03.070Z,16.97
2019-02-26T06:03:34.509Z,13.72
2019-02-26T06:04:07.669Z,13.90
2019-02-26T06:04:41.027Z,11.45
2019-02-26T06:05:12.331Z,12.10
2019-02-26T06:05:46.517Z,15.68
2019-02-26T06:06:17.477Z,15.43
2019-02-26T06:06:51.071Z,13.80
2019-02-26T06:07:24.210Z,15.23
2019-02-26T06:07:54.644Z,14.45
2019-02-26T06:08:29.412Z,13.55
2019-02-26T06:08:59.865Z,16.30
2019-02-26T06:09:33.779Z,14.87
2019-02-26T06:10:04.757Z,14.13
2019-02-26T06:10:35.967Z,13.53
2019-02-26T06:11:07.184Z,17.20
2019-02-26T06:11:40.006Z,14.90
2019-02-26T06:12:11.448Z,13.43
2019-02-26T06:12:44.639Z,13.70
2019-02-26T06:13:15.842Z,13.13
2019-02-26T06:13:47.044Z,13.28
2019-02-26T06:14:18.255Z,11.85
2019-02-26T06:14:51.365Z,11.88
2019-02-26T06:15:23.113Z,15.45
2019-02-26T06:15:58.639Z,11.70
2019-02-26T06:16:29.052Z,13.08
2019-02-26T06:17:01.256Z,12.53
2019-02-26T06:17:32.519Z,15.55
2019-02-26T06:18:03.770Z,13.32
2019-02-26T06:18:34.994Z,12.33
2019-02-26T06:19:08.306Z,11.75
2019-02-26T06:19:40.227Z,12.70
2019-02-26T06:20:12.121Z,11.22
2019-02-26T06:20:43.337Z,14.45
2019-02-26T06:21:16.523Z,14.28
2019-02-26T06:21:49.720Z,13.75
2019-02-26T06:22:23.285Z,13.32
2019-02-26T06:22:53.423Z,13.15
2019-02-26T06:23:25.527Z,14.78
2019-02-26T06:23:57.563Z,12.75
2019-02-26T06:24:29.713Z,13.15
2019-02-26T06:25:04.067Z,18.70
2019-02-26T06:25:36.857Z,16.97
2019-02-26T06:26:13.200Z,13.30
2019-02-26T06:26:43.026Z,15.40
2019-02-26T06:27:18.277Z,18.50
2019-02-26T06:27:46.996Z,15.25
2019-02-26T06:28:20.444Z,13.95
2019-02-26T06:28:52.830Z,14.75
2019-02-26T06:29:24.760Z,14.70
2019-02-26T06:29:58.131Z,14.45
2019-02-26T06:30:30.173Z,14.25
2019-02-26T06:31:01.420Z,15.78
2019-02-26T06:31:32.659Z,13.55
2019-02-26T06:32:05.311Z,16.37
2019-02-26T06:32:39.151Z,16.07
2019-02-26T06:33:11.616Z,17.90
2019-02-26T06:33:43.715Z,15.38
2019-02-26T06:34:16.349Z,17.77
2019-02-26T06:34:48.686Z,16.93
2019-02-26T06:35:19.954Z,14.80
2019-02-26T06:35:51.191Z,11.55
2019-02-26T06:36:23.474Z,13.08
2019-02-26T06:36:55.401Z,14.28
2019-02-26T06:37:28.562Z,14.20
2019-02-26T06:38:01.971Z,15.85
2019-02-26T06:38:33.286Z,15.30
2019-02-26T06:39:06.008Z,15.53
2019-02-26T06:39:37.420Z,15.45
2019-02-26T06:40:08.629Z,14.73
2019-02-26T06:40:41.781Z,14.80
2019-02-26T06:41:12.815Z,18.20
2019-02-26T06:41:45.003Z,17.00
2019-02-26T06:42:17.016Z,14.87
2019-02-26T06:42:48.279Z,15.48
2019-02-26T06:43:19.500Z,15.78
2019-02-26T06:43:52.498Z,15.25
2019-02-26T06:44:23.680Z,16.85
2019-02-26T06:44:55.026Z,16.35
2019-02-26T06:45:26.284Z,13.48
2019-02-26T06:45:57.508Z,15.13
2019-02-26T06:46:29.446Z,15.25
2019-02-26T06:47:02.630Z,15.35
2019-02-26T06:47:34.617Z,20.75
2019-02-26T06:48:05.892Z,20.12
2019-02-26T06:48:37.115Z,17.07
2019-02-26T06:49:08.317Z,16.02
2019-02-26T06:49:41.418Z,18.82
2019-02-26T06:50:13.241Z,16.75
2019-02-26T06:50:45.471Z,18.07
2019-02-26T06:51:16.683Z,17.42
2019-02-26T06:51:49.785Z,13.35
2019-02-26T06:52:20.843Z,16.37
2019-02-26T06:52:52.091Z,19.57
2019-02-26T06:53:23.314Z,18.50
2019-02-26T06:53:56.504Z,16.60